sensor_id;sensor_type;location;lat;lon;timestamp;P1;durP1;ratioP1;P2;durP2;ratioP2
44120;SDS011;29783;52.504;13.478;2023-08-21T00:01:36;12.88;;;9.02;;
44120;SDS011;29783;52.504;13.478;2023-08-21T00:04:02;17.70;;;10.77;;
44120;SDS011;29783;52.504;13.478;2023-08-21T00:06:28;15.82;;;9.88;;
44120;SDS011;29783;52.504;13.478;2023-08-21T00:08:54;11.65;;;9.40;;
44120;SDS011;29783;52.504;13.478;2023-08-21T00:11:19;13.55;;;9.43;;
44120;SDS011;29783;52.504;13.478;2023-08-21T00:13:45;16.55;;;9.45;;
44120;SDS011;29783;52.504;13.478;2023-08-21T00:16:13;13.20;;;10.35;;
44120;SDS011;29783;52.504;13.478;2023-08-21T00:18:38;20.85;;;10.23;;
44120;SDS011;29783;52.504;13.478;2023-08-21T00:21:04;17.40;;;10.13;;
44120;SDS011;29783;52.504;13.478;2023-08-21T00:23:30;14.60;;;9.63;;
44120;SDS011;29783;52.504;13.478;2023-08-21T00:25:56;18.88;;;9.43;;
44120;SDS011;29783;52.504;13.478;2023-08-21T00:28:22;15.13;;;10.73;;
44120;SDS011;29783;52.504;13.478;2023-08-21T00:30:47;13.20;;;9.90;;
44120;SDS011;29783;52.504;13.478;2023-08-21T00:33:13;14.75;;;10.77;;
44120;SDS011;29783;52.504;13.478;2023-08-21T00:35:38;13.93;;;10.10;;
44120;SDS011;29783;52.504;13.478;2023-08-21T00:38:05;16.55;;;10.68;;
44120;SDS011;29783;52.504;13.478;2023-08-21T00:40:31;12.55;;;10.00;;
44120;SDS011;29783;52.504;13.478;2023-08-21T00:42:57;16.45;;;10.48;;
44120;SDS011;29783;52.504;13.478;2023-08-21T00:45:23;16.75;;;10.32;;
44120;SDS011;29783;52.504;13.478;2023-08-21T00:47:48;15.27;;;11.38;;
44120;SDS011;29783;52.504;13.478;2023-08-21T00:50:14;14.13;;;10.82;;
44120;SDS011;29783;52.504;13.478;2023-08-21T00:52:40;13.55;;;10.20;;
44120;SDS011;29783;52.504;13.478;2023-08-21T00:55:09;21.70;;;11.95;;
44120;SDS011;29783;52.504;13.478;2023-08-21T00:57:36;13.45;;;10.25;;
44120;SDS011;29783;52.504;13.478;2023-08-21T01:00:02;13.95;;;11.00;;
44120;SDS011;29783;52.504;13.478;2023-08-21T01:02:29;13.57;;;11.27;;
44120;SDS011;29783;52.504;13.478;2023-08-21T01:04:55;19.83;;;10.73;;
44120;SDS011;29783;52.504;13.478;2023-08-21T01:07:21;16.70;;;11.43;;
44120;SDS011;29783;52.504;13.478;2023-08-21T01:12:29;17.70;;;11.70;;
44120;SDS011;29783;52.504;13.478;2023-08-21T01:15:04;20.00;;;10.85;;
44120;SDS011;29783;52.504;13.478;2023-08-21T01:17:31;17.77;;;11.45;;
44120;SDS011;29783;52.504;13.478;2023-08-21T01:19:59;17.25;;;11.23;;
44120;SDS011;29783;52.504;13.478;2023-08-21T01:22:28;18.48;;;11.88;;
44120;SDS011;29783;52.504;13.478;2023-08-21T01:25:07;19.95;;;11.23;;
44120;SDS011;29783;52.504;13.478;2023-08-21T01:27:34;15.13;;;10.57;;
44120;SDS011;29783;52.504;13.478;2023-08-21T01:30:01;16.42;;;10.50;;
44120;SDS011;29783;52.504;13.478;2023-08-21T01:35:22;13.95;;;9.63;;
44120;SDS011;29783;52.504;13.478;2023-08-21T01:37:49;20.42;;;11.10;;
44120;SDS011;29783;52.504;13.478;2023-08-21T01:40:24;13.23;;;10.27;;
44120;SDS011;29783;52.504;13.478;2023-08-21T01:42:53;15.38;;;10.57;;
44120;SDS011;29783;52.504;13.478;2023-08-21T01:45:19;19.63;;;11.32;;
44120;SDS011;29783;52.504;13.478;2023-08-21T01:47:47;13.77;;;10.50;;
44120;SDS011;29783;52.504;13.478;2023-08-21T01:50:13;18.90;;;10.10;;
44120;SDS011;29783;52.504;13.478;2023-08-21T01:52:38;18.23;;;10.80;;
44120;SDS011;29783;52.504;13.478;2023-08-21T01:55:04;14.00;;;9.45;;
44120;SDS011;29783;52.504;13.478;2023-08-21T01:57:35;14.68;;;10.50;;
44120;SDS011;29783;52.504;13.478;2023-08-21T02:00:01;16.58;;;9.70;;
44120;SDS011;29783;52.504;13.478;2023-08-21T02:02:29;12.70;;;10.13;;
44120;SDS011;29783;52.504;13.478;2023-08-21T02:04:56;10.93;;;9.25;;
44120;SDS011;29783;52.504;13.478;2023-08-21T02:07:22;19.60;;;9.88;;
44120;SDS011;29783;52.504;13.478;2023-08-21T02:09:47;14.75;;;9.68;;
44120;SDS011;29783;52.504;13.478;2023-08-21T02:12:14;12.00;;;9.75;;
44120;SDS011;29783;52.504;13.478;2023-08-21T02:14:40;18.10;;;10.45;;
44120;SDS011;29783;52.504;13.478;2023-08-21T02:17:05;16.58;;;9.75;;
44120;SDS011;29783;52.504;13.478;2023-08-21T02:19:31;12.50;;;9.45;;
44120;SDS011;29783;52.504;13.478;2023-08-21T02:21:56;14.25;;;9.77;;
44120;SDS011;29783;52.504;13.478;2023-08-21T02:24:22;11.15;;;9.50;;
44120;SDS011;29783;52.504;13.478;2023-08-21T02:26:48;19.20;;;10.32;;
44120;SDS011;29783;52.504;13.478;2023-08-21T02:29:13;18.75;;;9.95;;
44120;SDS011;29783;52.504;13.478;2023-08-21T02:31:39;17.58;;;9.77;;
44120;SDS011;29783;52.504;13.478;2023-08-21T02:34:05;13.32;;;9.55;;
44120;SDS011;29783;52.504;13.478;2023-08-21T02:36:30;11.48;;;8.70;;
44120;SDS011;29783;52.504;13.478;2023-08-21T02:38:56;15.85;;;9.80;;
44120;SDS011;29783;52.504;13.478;2023-08-21T02:41:22;11.38;;;8.43;;
44120;SDS011;29783;52.504;13.478;2023-08-21T02:43:49;18.42;;;9.02;;
44120;SDS011;29783;52.504;13.478;2023-08-21T02:46:15;17.15;;;9.40;;
44120;SDS011;29783;52.504;13.478;2023-08-21T02:48:41;12.98;;;8.88;;
44120;SDS011;29783;52.504;13.478;2023-08-21T02:51:07;9.75;;;8.68;;
44120;SDS011;29783;52.504;13.478;2023-08-21T02:53:32;17.48;;;9.38;;
44120;SDS011;29783;52.504;13.478;2023-08-21T02:55:58;11.50;;;8.95;;
44120;SDS011;29783;52.504;13.478;2023-08-21T02:58:24;15.52;;;9.00;;
44120;SDS011;29783;52.504;13.478;2023-08-21T03:00:50;10.02;;;8.15;;
44120;SDS011;29783;52.504;13.478;2023-08-21T03:03:15;11.60;;;8.95;;
44120;SDS011;29783;52.504;13.478;2023-08-21T03:05:41;12.05;;;8.70;;
44120;SDS011;29783;52.504;13.478;2023-08-21T03:08:07;14.38;;;8.93;;
44120;SDS011;29783;52.504;13.478;2023-08-21T03:10:32;16.30;;;8.15;;
44120;SDS011;29783;52.504;13.478;2023-08-21T03:12:59;13.52;;;8.52;;
44120;SDS011;29783;52.504;13.478;2023-08-21T03:15:25;13.13;;;8.50;;
44120;SDS011;29783;52.504;13.478;2023-08-21T03:17:50;12.95;;;8.63;;
44120;SDS011;29783;52.504;13.478;2023-08-21T03:20:16;15.70;;;8.65;;
44120;SDS011;29783;52.504;13.478;2023-08-21T03:22:46;15.13;;;8.68;;
44120;SDS011;29783;52.504;13.478;2023-08-21T03:25:12;13.38;;;8.57;;
44120;SDS011;29783;52.504;13.478;2023-08-21T03:27:37;12.27;;;8.10;;
44120;SDS011;29783;52.504;13.478;2023-08-21T03:30:05;12.07;;;7.90;;
44120;SDS011;29783;52.504;13.478;2023-08-21T03:32:32;14.95;;;8.25;;
44120;SDS011;29783;52.504;13.478;2023-08-21T03:34:58;13.18;;;8.13;;
44120;SDS011;29783;52.504;13.478;2023-08-21T03:37:23;22.05;;;8.25;;
44120;SDS011;29783;52.504;13.478;2023-08-21T03:39:49;10.85;;;8.50;;
44120;SDS011;29783;52.504;13.478;2023-08-21T03:42:15;12.35;;;8.30;;
44120;SDS011;29783;52.504;13.478;2023-08-21T03:44:41;10.35;;;7.47;;
44120;SDS011;29783;52.504;13.478;2023-08-21T03:47:06;9.10;;;7.25;;
44120;SDS011;29783;52.504;13.478;2023-08-21T03:49:32;12.63;;;8.02;;
44120;SDS011;29783;52.504;13.478;2023-08-21T03:51:57;15.25;;;8.30;;
44120;SDS011;29783;52.504;13.478;2023-08-21T03:54:23;13.32;;;7.82;;
44120;SDS011;29783;52.504;13.478;2023-08-21T03:56:48;12.15;;;7.78;;
44120;SDS011;29783;52.504;13.478;2023-08-21T03:59:14;12.23;;;8.27;;
44120;SDS011;29783;52.504;13.478;2023-08-21T04:01:40;14.82;;;7.53;;
44120;SDS011;29783;52.504;13.478;2023-08-21T04:04:05;14.85;;;7.45;;
44120;SDS011;29783;52.504;13.478;2023-08-21T04:06:31;14.30;;;8.00;;
44120;SDS011;29783;52.504;13.478;2023-08-21T04:08:56;11.35;;;7.53;;
44120;SDS011;29783;52.504;13.478;2023-08-21T04:11:22;10.98;;;7.70;;
44120;SDS011;29783;52.504;13.478;2023-08-21T04:13:47;15.63;;;7.95;;
44120;SDS011;29783;52.504;13.478;2023-08-21T04:16:13;16.90;;;9.05;;
44120;SDS011;29783;52.504;13.478;2023-08-21T04:18:39;16.00;;;7.72;;
44120;SDS011;29783;52.504;13.478;2023-08-21T04:21:05;16.25;;;8.18;;
44120;SDS011;29783;52.504;13.478;2023-08-21T04:23:31;12.63;;;7.85;;
44120;SDS011;29783;52.504;13.478;2023-08-21T04:26:00;10.95;;;7.63;;
44120;SDS011;29783;52.504;13.478;2023-08-21T04:28:27;13.68;;;7.70;;
44120;SDS011;29783;52.504;13.478;2023-08-21T04:30:53;11.30;;;7.43;;
44120;SDS011;29783;52.504;13.478;2023-08-21T04:33:18;13.95;;;7.50;;
44120;SDS011;29783;52.504;13.478;2023-08-21T04:35:44;8.68;;;7.18;;
44120;SDS011;29783;52.504;13.478;2023-08-21T04:38:09;8.20;;;6.78;;
44120;SDS011;29783;52.504;13.478;2023-08-21T04:40:35;14.65;;;8.07;;
44120;SDS011;29783;52.504;13.478;2023-08-21T04:43:00;12.73;;;7.80;;
44120;SDS011;29783;52.504;13.478;2023-08-21T04:45:26;10.68;;;7.38;;
44120;SDS011;29783;52.504;13.478;2023-08-21T04:47:51;9.65;;;6.82;;
44120;SDS011;29783;52.504;13.478;2023-08-21T04:50:17;12.98;;;8.00;;
44120;SDS011;29783;52.504;13.478;2023-08-21T04:52:43;9.02;;;7.05;;
44120;SDS011;29783;52.504;13.478;2023-08-21T04:55:08;19.58;;;7.30;;
44120;SDS011;29783;52.504;13.478;2023-08-21T04:57:34;11.60;;;6.90;;
44120;SDS011;29783;52.504;13.478;2023-08-21T04:59:59;37.13;;;7.60;;
44120;SDS011;29783;52.504;13.478;2023-08-21T05:02:25;20.30;;;7.68;;
44120;SDS011;29783;52.504;13.478;2023-08-21T05:04:51;15.45;;;7.30;;
44120;SDS011;29783;52.504;13.478;2023-08-21T05:07:16;20.58;;;6.78;;
44120;SDS011;29783;52.504;13.478;2023-08-21T05:09:42;16.92;;;7.55;;
44120;SDS011;29783;52.504;13.478;2023-08-21T05:12:08;11.27;;;7.03;;
44120;SDS011;29783;52.504;13.478;2023-08-21T05:14:33;10.85;;;6.90;;
44120;SDS011;29783;52.504;13.478;2023-08-21T05:16:59;13.23;;;7.47;;
44120;SDS011;29783;52.504;13.478;2023-08-21T05:19:24;14.48;;;8.60;;
44120;SDS011;29783;52.504;13.478;2023-08-21T05:21:50;11.48;;;6.97;;
44120;SDS011;29783;52.504;13.478;2023-08-21T05:24:16;21.80;;;8.25;;
44120;SDS011;29783;52.504;13.478;2023-08-21T05:26:41;18.13;;;7.68;;
44120;SDS011;29783;52.504;13.478;2023-08-21T05:29:07;18.63;;;8.23;;
44120;SDS011;29783;52.504;13.478;2023-08-21T05:31:33;18.88;;;7.28;;
44120;SDS011;29783;52.504;13.478;2023-08-21T05:33:58;19.30;;;7.90;;
44120;SDS011;29783;52.504;13.478;2023-08-21T05:36:24;20.73;;;7.97;;
44120;SDS011;29783;52.504;13.478;2023-08-21T05:38:50;19.42;;;7.57;;
44120;SDS011;29783;52.504;13.478;2023-08-21T05:41:16;9.27;;;7.57;;
44120;SDS011;29783;52.504;13.478;2023-08-21T05:43:42;23.25;;;7.72;;
44120;SDS011;29783;52.504;13.478;2023-08-21T05:46:07;22.70;;;7.63;;
44120;SDS011;29783;52.504;13.478;2023-08-21T05:48:33;12.80;;;7.05;;
44120;SDS011;29783;52.504;13.478;2023-08-21T05:50:59;15.55;;;7.70;;
44120;SDS011;29783;52.504;13.478;2023-08-21T05:53:25;15.50;;;7.53;;
44120;SDS011;29783;52.504;13.478;2023-08-21T05:55:51;19.38;;;7.78;;
44120;SDS011;29783;52.504;13.478;2023-08-21T05:58:17;21.63;;;7.05;;
44120;SDS011;29783;52.504;13.478;2023-08-21T06:00:43;23.83;;;7.45;;
44120;SDS011;29783;52.504;13.478;2023-08-21T06:03:09;15.18;;;6.50;;
44120;SDS011;29783;52.504;13.478;2023-08-21T06:05:35;10.65;;;7.40;;
44120;SDS011;29783;52.504;13.478;2023-08-21T06:08:00;12.77;;;7.65;;
44120;SDS011;29783;52.504;13.478;2023-08-21T06:10:26;15.25;;;7.50;;
44120;SDS011;29783;52.504;13.478;2023-08-21T06:12:52;13.05;;;7.93;;
44120;SDS011;29783;52.504;13.478;2023-08-21T06:15:18;14.27;;;7.18;;
44120;SDS011;29783;52.504;13.478;2023-08-21T06:17:43;11.30;;;7.93;;
44120;SDS011;29783;52.504;13.478;2023-08-21T06:20:09;23.45;;;7.22;;
44120;SDS011;29783;52.504;13.478;2023-08-21T06:22:35;10.73;;;7.32;;
44120;SDS011;29783;52.504;13.478;2023-08-21T06:25:01;9.60;;;6.15;;
44120;SDS011;29783;52.504;13.478;2023-08-21T06:27:26;11.20;;;6.50;;
44120;SDS011;29783;52.504;13.478;2023-08-21T06:29:52;12.27;;;6.15;;
44120;SDS011;29783;52.504;13.478;2023-08-21T06:32:18;23.35;;;6.57;;
44120;SDS011;29783;52.504;13.478;2023-08-21T06:34:43;16.75;;;6.30;;
44120;SDS011;29783;52.504;13.478;2023-08-21T06:37:09;8.35;;;6.30;;
44120;SDS011;29783;52.504;13.478;2023-08-21T06:39:34;14.23;;;6.10;;
44120;SDS011;29783;52.504;13.478;2023-08-21T06:42:00;12.05;;;6.20;;
44120;SDS011;29783;52.504;13.478;2023-08-21T06:44:26;8.75;;;5.72;;
44120;SDS011;29783;52.504;13.478;2023-08-21T06:46:52;8.90;;;5.47;;
44120;SDS011;29783;52.504;13.478;2023-08-21T06:49:18;9.50;;;6.05;;
44120;SDS011;29783;52.504;13.478;2023-08-21T06:51:43;12.20;;;6.00;;
44120;SDS011;29783;52.504;13.478;2023-08-21T06:54:09;11.80;;;5.93;;
44120;SDS011;29783;52.504;13.478;2023-08-21T06:56:34;11.90;;;5.95;;
44120;SDS011;29783;52.504;13.478;2023-08-21T06:59:00;13.85;;;5.65;;
44120;SDS011;29783;52.504;13.478;2023-08-21T07:01:27;12.70;;;5.38;;
44120;SDS011;29783;52.504;13.478;2023-08-21T07:03:52;13.85;;;4.72;;
44120;SDS011;29783;52.504;13.478;2023-08-21T07:06:18;11.75;;;5.70;;
44120;SDS011;29783;52.504;13.478;2023-08-21T07:08:44;12.32;;;5.78;;
44120;SDS011;29783;52.504;13.478;2023-08-21T07:11:09;12.93;;;5.60;;
44120;SDS011;29783;52.504;13.478;2023-08-21T07:13:37;21.00;;;6.00;;
44120;SDS011;29783;52.504;13.478;2023-08-21T07:16:03;19.52;;;6.28;;
44120;SDS011;29783;52.504;13.478;2023-08-21T07:18:31;16.80;;;6.05;;
44120;SDS011;29783;52.504;13.478;2023-08-21T07:20:58;11.57;;;6.07;;
44120;SDS011;29783;52.504;13.478;2023-08-21T07:23:24;16.00;;;6.03;;
44120;SDS011;29783;52.504;13.478;2023-08-21T07:25:49;19.60;;;6.55;;
44120;SDS011;29783;52.504;13.478;2023-08-21T07:28:15;10.55;;;6.15;;
44120;SDS011;29783;52.504;13.478;2023-08-21T07:30:41;13.00;;;5.88;;
44120;SDS011;29783;52.504;13.478;2023-08-21T07:33:07;8.85;;;4.85;;
44120;SDS011;29783;52.504;13.478;2023-08-21T07:35:33;8.60;;;5.07;;
44120;SDS011;29783;52.504;13.478;2023-08-21T07:37:58;19.63;;;4.63;;
44120;SDS011;29783;52.504;13.478;2023-08-21T07:40:24;8.77;;;4.78;;
44120;SDS011;29783;52.504;13.478;2023-08-21T07:42:50;12.45;;;4.30;;
44120;SDS011;29783;52.504;13.478;2023-08-21T07:45:16;15.93;;;5.00;;
44120;SDS011;29783;52.504;13.478;2023-08-21T07:47:42;10.50;;;3.80;;
44120;SDS011;29783;52.504;13.478;2023-08-21T07:50:08;10.15;;;4.03;;
44120;SDS011;29783;52.504;13.478;2023-08-21T07:52:34;14.30;;;4.10;;
44120;SDS011;29783;52.504;13.478;2023-08-21T07:55:00;9.38;;;3.60;;
44120;SDS011;29783;52.504;13.478;2023-08-21T07:57:29;11.65;;;3.45;;
44120;SDS011;29783;52.504;13.478;2023-08-21T07:59:56;9.93;;;3.05;;
44120;SDS011;29783;52.504;13.478;2023-08-21T08:02:23;7.85;;;2.85;;
44120;SDS011;29783;52.504;13.478;2023-08-21T08:04:48;6.93;;;2.83;;
44120;SDS011;29783;52.504;13.478;2023-08-21T08:07:14;10.75;;;3.50;;
44120;SDS011;29783;52.504;13.478;2023-08-21T08:09:40;13.90;;;3.50;;
44120;SDS011;29783;52.504;13.478;2023-08-21T08:12:06;5.15;;;3.40;;
44120;SDS011;29783;52.504;13.478;2023-08-21T08:14:32;6.90;;;3.20;;
44120;SDS011;29783;52.504;13.478;2023-08-21T08:16:57;6.50;;;2.70;;
44120;SDS011;29783;52.504;13.478;2023-08-21T08:19:24;8.63;;;2.72;;
44120;SDS011;29783;52.504;13.478;2023-08-21T08:21:50;5.78;;;2.63;;
44120;SDS011;29783;52.504;13.478;2023-08-21T08:24:15;10.93;;;2.33;;
44120;SDS011;29783;52.504;13.478;2023-08-21T08:26:41;8.60;;;2.72;;
44120;SDS011;29783;52.504;13.478;2023-08-21T08:29:08;10.07;;;2.40;;
44120;SDS011;29783;52.504;13.478;2023-08-21T08:31:34;6.07;;;2.38;;
44120;SDS011;29783;52.504;13.478;2023-08-21T08:34:00;6.97;;;2.60;;
44120;SDS011;29783;52.504;13.478;2023-08-21T08:36:26;7.70;;;2.38;;
44120;SDS011;29783;52.504;13.478;2023-08-21T08:38:51;10.30;;;2.60;;
44120;SDS011;29783;52.504;13.478;2023-08-21T08:41:33;6.82;;;2.40;;
44120;SDS011;29783;52.504;13.478;2023-08-21T08:44:08;5.53;;;2.33;;
44120;SDS011;29783;52.504;13.478;2023-08-21T08:46:35;5.28;;;2.30;;
44120;SDS011;29783;52.504;13.478;2023-08-21T08:49:02;8.48;;;2.80;;
44120;SDS011;29783;52.504;13.478;2023-08-21T08:51:29;7.22;;;2.50;;
44120;SDS011;29783;52.504;13.478;2023-08-21T08:53:57;12.15;;;3.15;;
44120;SDS011;29783;52.504;13.478;2023-08-21T08:56:24;9.20;;;2.92;;
44120;SDS011;29783;52.504;13.478;2023-08-21T08:58:49;6.22;;;2.38;;
44120;SDS011;29783;52.504;13.478;2023-08-21T09:01:16;3.80;;;1.98;;
44120;SDS011;29783;52.504;13.478;2023-08-21T09:03:41;4.82;;;2.10;;
44120;SDS011;29783;52.504;13.478;2023-08-21T09:06:07;5.22;;;1.98;;
44120;SDS011;29783;52.504;13.478;2023-08-21T09:08:32;5.88;;;1.75;;
44120;SDS011;29783;52.504;13.478;2023-08-21T09:11:00;7.97;;;1.70;;
44120;SDS011;29783;52.504;13.478;2023-08-21T09:13:28;5.95;;;1.40;;
44120;SDS011;29783;52.504;13.478;2023-08-21T09:15:56;3.70;;;1.30;;
44120;SDS011;29783;52.504;13.478;2023-08-21T09:18:23;6.55;;;1.20;;
44120;SDS011;29783;52.504;13.478;2023-08-21T09:20:50;4.32;;;1.08;;
44120;SDS011;29783;52.504;13.478;2023-08-21T09:23:16;3.15;;;0.90;;
44120;SDS011;29783;52.504;13.478;2023-08-21T09:25:46;3.15;;;0.90;;
44120;SDS011;29783;52.504;13.478;2023-08-21T09:28:13;3.80;;;1.02;;
44120;SDS011;29783;52.504;13.478;2023-08-21T09:30:54;6.13;;;1.00;;
44120;SDS011;29783;52.504;13.478;2023-08-21T09:33:20;4.25;;;1.13;;
44120;SDS011;29783;52.504;13.478;2023-08-21T09:35:48;4.38;;;1.00;;
44120;SDS011;29783;52.504;13.478;2023-08-21T09:38:14;4.72;;;1.10;;
44120;SDS011;29783;52.504;13.478;2023-08-21T09:40:40;6.10;;;1.13;;
44120;SDS011;29783;52.504;13.478;2023-08-21T09:43:07;6.50;;;0.98;;
44120;SDS011;29783;52.504;13.478;2023-08-21T09:45:36;4.10;;;1.30;;
44120;SDS011;29783;52.504;13.478;2023-08-21T09:48:03;3.85;;;1.40;;
44120;SDS011;29783;52.504;13.478;2023-08-21T09:50:29;8.57;;;1.50;;
44120;SDS011;29783;52.504;13.478;2023-08-21T09:52:56;4.10;;;1.00;;
44120;SDS011;29783;52.504;13.478;2023-08-21T09:55:22;4.03;;;1.02;;
44120;SDS011;29783;52.504;13.478;2023-08-21T09:57:48;4.03;;;1.15;;
44120;SDS011;29783;52.504;13.478;2023-08-21T10:00:31;5.72;;;1.00;;
44120;SDS011;29783;52.504;13.478;2023-08-21T10:03:01;6.82;;;1.20;;
44120;SDS011;29783;52.504;13.478;2023-08-21T10:05:35;2.95;;;1.35;;
44120;SDS011;29783;52.504;13.478;2023-08-21T10:08:03;6.97;;;1.13;;
44120;SDS011;29783;52.504;13.478;2023-08-21T10:10:34;2.90;;;1.30;;
44120;SDS011;29783;52.504;13.478;2023-08-21T10:13:01;5.63;;;1.50;;
44120;SDS011;29783;52.504;13.478;2023-08-21T10:15:28;2.03;;;0.73;;
44120;SDS011;29783;52.504;13.478;2023-08-21T10:17:56;3.35;;;1.40;;
44120;SDS011;29783;52.504;13.478;2023-08-21T10:20:22;3.50;;;1.13;;
44120;SDS011;29783;52.504;13.478;2023-08-21T10:22:52;2.83;;;0.98;;
44120;SDS011;29783;52.504;13.478;2023-08-21T10:25:20;3.55;;;1.20;;
44120;SDS011;29783;52.504;13.478;2023-08-21T10:27:57;5.68;;;1.20;;
44120;SDS011;29783;52.504;13.478;2023-08-21T10:30:26;1.77;;;0.88;;
44120;SDS011;29783;52.504;13.478;2023-08-21T10:32:54;3.35;;;1.00;;
44120;SDS011;29783;52.504;13.478;2023-08-21T10:35:21;3.30;;;1.20;;
44120;SDS011;29783;52.504;13.478;2023-08-21T10:38:05;6.55;;;1.27;;
44120;SDS011;29783;52.504;13.478;2023-08-21T10:40:31;6.53;;;1.42;;
44120;SDS011;29783;52.504;13.478;2023-08-21T10:42:58;3.08;;;1.15;;
44120;SDS011;29783;52.504;13.478;2023-08-21T10:45:24;5.03;;;1.50;;
44120;SDS011;29783;52.504;13.478;2023-08-21T10:47:49;4.65;;;1.20;;
44120;SDS011;29783;52.504;13.478;2023-08-21T10:50:15;6.05;;;1.30;;
44120;SDS011;29783;52.504;13.478;2023-08-21T10:52:42;5.97;;;1.40;;
44120;SDS011;29783;52.504;13.478;2023-08-21T10:55:11;6.22;;;1.30;;
44120;SDS011;29783;52.504;13.478;2023-08-21T10:57:38;4.13;;;1.20;;
44120;SDS011;29783;52.504;13.478;2023-08-21T11:02:35;4.93;;;1.00;;
44120;SDS011;29783;52.504;13.478;2023-08-21T11:05:01;5.38;;;1.10;;
44120;SDS011;29783;52.504;13.478;2023-08-21T11:07:28;6.45;;;1.30;;
44120;SDS011;29783;52.504;13.478;2023-08-21T11:09:54;2.40;;;1.20;;
44120;SDS011;29783;52.504;13.478;2023-08-21T11:12:21;3.72;;;1.10;;
44120;SDS011;29783;52.504;13.478;2023-08-21T11:14:47;2.85;;;1.13;;
44120;SDS011;29783;52.504;13.478;2023-08-21T11:17:14;4.10;;;1.00;;
44120;SDS011;29783;52.504;13.478;2023-08-21T11:19:40;5.38;;;0.82;;
44120;SDS011;29783;52.504;13.478;2023-08-21T11:22:06;3.47;;;0.95;;
44120;SDS011;29783;52.504;13.478;2023-08-21T11:27:09;3.63;;;0.98;;
44120;SDS011;29783;52.504;13.478;2023-08-21T11:29:46;6.97;;;1.30;;
44120;SDS011;29783;52.504;13.478;2023-08-21T11:34:46;3.47;;;1.30;;
44120;SDS011;29783;52.504;13.478;2023-08-21T11:37:29;5.00;;;0.95;;
44120;SDS011;29783;52.504;13.478;2023-08-21T11:39:56;10.48;;;1.20;;
44120;SDS011;29783;52.504;13.478;2023-08-21T11:42:28;5.63;;;1.20;;
44120;SDS011;29783;52.504;13.478;2023-08-21T11:44:56;4.05;;;1.10;;
44120;SDS011;29783;52.504;13.478;2023-08-21T11:47:22;3.22;;;1.17;;
44120;SDS011;29783;52.504;13.478;2023-08-21T11:49:48;3.00;;;1.00;;
44120;SDS011;29783;52.504;13.478;2023-08-21T11:52:21;5.05;;;1.52;;
44120;SDS011;29783;52.504;13.478;2023-08-21T11:54:52;6.55;;;0.98;;
44120;SDS011;29783;52.504;13.478;2023-08-21T11:57:19;4.75;;;1.30;;
44120;SDS011;29783;52.504;13.478;2023-08-21T11:59:53;5.38;;;1.00;;
44120;SDS011;29783;52.504;13.478;2023-08-21T12:04:53;5.55;;;0.98;;
44120;SDS011;29783;52.504;13.478;2023-08-21T12:07:19;4.53;;;0.90;;
44120;SDS011;29783;52.504;13.478;2023-08-21T12:09:47;2.00;;;1.00;;
44120;SDS011;29783;52.504;13.478;2023-08-21T12:12:16;3.60;;;1.20;;
44120;SDS011;29783;52.504;13.478;2023-08-21T12:14:42;10.90;;;1.10;;
44120;SDS011;29783;52.504;13.478;2023-08-21T12:17:08;3.45;;;1.00;;
44120;SDS011;29783;52.504;13.478;2023-08-21T12:19:33;2.95;;;1.00;;
44120;SDS011;29783;52.504;13.478;2023-08-21T12:21:59;7.15;;;0.95;;
44120;SDS011;29783;52.504;13.478;2023-08-21T12:24:26;4.15;;;1.30;;
44120;SDS011;29783;52.504;13.478;2023-08-21T12:26:51;8.57;;;1.10;;
44120;SDS011;29783;52.504;13.478;2023-08-21T12:29:17;4.93;;;1.20;;
44120;SDS011;29783;52.504;13.478;2023-08-21T12:31:43;9.70;;;1.20;;
44120;SDS011;29783;52.504;13.478;2023-08-21T12:34:08;4.82;;;1.17;;
44120;SDS011;29783;52.504;13.478;2023-08-21T12:36:35;14.93;;;1.48;;
44120;SDS011;29783;52.504;13.478;2023-08-21T12:39:02;6.05;;;1.25;;
44120;SDS011;29783;52.504;13.478;2023-08-21T12:41:28;6.35;;;1.30;;
44120;SDS011;29783;52.504;13.478;2023-08-21T12:43:54;3.83;;;1.13;;
44120;SDS011;29783;52.504;13.478;2023-08-21T12:46:20;5.05;;;1.08;;
44120;SDS011;29783;52.504;13.478;2023-08-21T12:48:46;5.00;;;1.10;;
44120;SDS011;29783;52.504;13.478;2023-08-21T12:51:11;4.13;;;0.95;;
44120;SDS011;29783;52.504;13.478;2023-08-21T12:53:37;4.80;;;1.00;;
44120;SDS011;29783;52.504;13.478;2023-08-21T12:56:02;4.20;;;1.15;;
44120;SDS011;29783;52.504;13.478;2023-08-21T12:58:29;7.00;;;1.00;;
44120;SDS011;29783;52.504;13.478;2023-08-21T13:00:54;3.22;;;0.98;;
44120;SDS011;29783;52.504;13.478;2023-08-21T13:03:20;2.28;;;0.85;;
44120;SDS011;29783;52.504;13.478;2023-08-21T13:05:46;12.20;;;1.23;;
44120;SDS011;29783;52.504;13.478;2023-08-21T13:08:11;2.65;;;0.90;;
44120;SDS011;29783;52.504;13.478;2023-08-21T13:10:37;3.53;;;1.10;;
44120;SDS011;29783;52.504;13.478;2023-08-21T13:13:03;3.95;;;1.00;;
44120;SDS011;29783;52.504;13.478;2023-08-21T13:15:29;12.30;;;1.05;;
44120;SDS011;29783;52.504;13.478;2023-08-21T13:17:54;10.38;;;0.95;;
44120;SDS011;29783;52.504;13.478;2023-08-21T13:20:20;2.85;;;0.65;;
44120;SDS011;29783;52.504;13.478;2023-08-21T13:22:46;6.45;;;1.38;;
44120;SDS011;29783;52.504;13.478;2023-08-21T13:25:13;3.80;;;1.40;;
44120;SDS011;29783;52.504;13.478;2023-08-21T13:27:40;2.83;;;0.90;;
44120;SDS011;29783;52.504;13.478;2023-08-21T13:30:06;3.70;;;0.93;;
44120;SDS011;29783;52.504;13.478;2023-08-21T13:32:33;3.58;;;0.85;;
44120;SDS011;29783;52.504;13.478;2023-08-21T13:34:59;4.10;;;0.98;;
44120;SDS011;29783;52.504;13.478;2023-08-21T13:37:24;5.85;;;0.95;;
44120;SDS011;29783;52.504;13.478;2023-08-21T13:39:51;4.07;;;1.10;;
44120;SDS011;29783;52.504;13.478;2023-08-21T13:42:17;4.68;;;0.95;;
44120;SDS011;29783;52.504;13.478;2023-08-21T13:44:42;2.65;;;0.80;;
44120;SDS011;29783;52.504;13.478;2023-08-21T13:47:09;3.95;;;0.90;;
44120;SDS011;29783;52.504;13.478;2023-08-21T13:49:36;4.40;;;1.25;;
44120;SDS011;29783;52.504;13.478;2023-08-21T13:52:02;2.95;;;0.90;;
44120;SDS011;29783;52.504;13.478;2023-08-21T13:54:28;3.50;;;1.00;;
44120;SDS011;29783;52.504;13.478;2023-08-21T13:56:54;5.90;;;1.17;;
44120;SDS011;29783;52.504;13.478;2023-08-21T13:59:20;4.55;;;1.00;;
44120;SDS011;29783;52.504;13.478;2023-08-21T14:01:45;6.97;;;1.23;;
44120;SDS011;29783;52.504;13.478;2023-08-21T14:04:11;3.58;;;1.00;;
44120;SDS011;29783;52.504;13.478;2023-08-21T14:06:37;2.83;;;0.90;;
44120;SDS011;29783;52.504;13.478;2023-08-21T14:09:02;1.90;;;0.63;;
44120;SDS011;29783;52.504;13.478;2023-08-21T14:11:28;3.90;;;1.00;;
44120;SDS011;29783;52.504;13.478;2023-08-21T14:13:53;3.13;;;0.80;;
44120;SDS011;29783;52.504;13.478;2023-08-21T14:16:19;6.25;;;1.10;;
44120;SDS011;29783;52.504;13.478;2023-08-21T14:18:45;5.10;;;1.15;;
44120;SDS011;29783;52.504;13.478;2023-08-21T14:21:10;4.80;;;0.90;;
44120;SDS011;29783;52.504;13.478;2023-08-21T14:23:36;2.97;;;0.80;;
44120;SDS011;29783;52.504;13.478;2023-08-21T14:26:03;7.75;;;1.00;;
44120;SDS011;29783;52.504;13.478;2023-08-21T14:28:29;3.58;;;1.30;;
44120;SDS011;29783;52.504;13.478;2023-08-21T14:30:54;2.90;;;0.93;;
44120;SDS011;29783;52.504;13.478;2023-08-21T14:33:20;3.03;;;1.00;;
44120;SDS011;29783;52.504;13.478;2023-08-21T14:35:46;5.05;;;1.10;;
44120;SDS011;29783;52.504;13.478;2023-08-21T14:38:12;8.20;;;1.10;;